Time;durP1;ratioP1;P1;durP2;ratioP2;P2;SDS_P1;SDS_P2;PMS_P1;PMS_P2;Temp;Humidity;BMP_temperature;BMP_pressure;BME280_temperature;BME280_humidity;BME280_pressure;Samples;Min_cycle;Max_cycle;Signal;HPM_P1;HPM_P2
2023/03/21 00:01:25;;;;;;;16.33;8.40;;;;;;;8.73;60.63;99298.66;6108202;23;20344;-87
2023/03/21 00:03:50;;;;;;;18.27;8.10;;;;;;;8.75;60.74;99306.47;6108877;23;20002;-87
2023/03/21 00:06:16;;;;;;;15.45;7.85;;;;;;;8.79;60.88;99294.16;6109599;23;20013;-87
2023/03/21 00:08:41;;;;;;;13.52;7.70;;;;;;;8.75;60.15;99293.06;6108648;23;20385;-86
2023/03/21 00:11:08;;;;;;;8.50;6.57;;;;;;;8.76;60.67;99287.44;6108611;23;20004;-87
2023/03/21 00:13:37;;;;;;;13.57;7.57;;;;;;;8.69;60.85;99282.28;6085241;23;20001;-87
2023/03/21 00:16:14;;;;;;;11.00;7.35;;;;;;;8.66;60.62;99280.09;6109289;23;20032;-87
2023/03/21 00:18:40;;;;;;;14.40;7.80;;;;;;;8.85;60.34;99282.38;6086792;23;19997;-87
2023/03/21 00:21:07;;;;;;;11.75;6.97;;;;;;;8.92;59.98;99274.09;6109861;23;20008;-87
2023/03/21 00:23:33;;;;;;;11.88;6.68;;;;;;;8.78;60.48;99263.81;6109609;23;20002;-87
2023/03/21 00:25:58;;;;;;;12.32;7.68;;;;;;;8.74;60.83;99265.41;6110098;23;20492;-87
2023/03/21 00:28:24;;;;;;;12.82;7.20;;;;;;;8.70;60.78;99246.31;6108504;23;20032;-87
2023/03/21 00:30:50;;;;;;;12.10;7.57;;;;;;;8.76;60.47;99249.84;6108545;23;20008;-87
2023/03/21 00:33:19;;;;;;;9.95;6.97;;;;;;;8.76;60.39;99249.03;6107837;23;20468;-87
2023/03/21 00:35:46;;;;;;;16.33;8.30;;;;;;;8.73;60.37;99244.97;6109200;23;20012;-88
2023/03/21 00:38:12;;;;;;;9.32;7.13;;;;;;;8.80;59.99;99242.06;6108803;23;20005;-87
2023/03/21 00:40:38;;;;;;;13.70;8.57;;;;;;;8.88;59.84;99238.88;6108424;23;20487;-88
2023/03/21 00:43:03;;;;;;;13.63;7.30;;;;;;;8.82;60.10;99230.03;6108594;23;19997;-87
2023/03/21 00:45:29;;;;;;;17.95;8.27;;;;;;;8.90;59.79;99223.31;6107565;23;20008;-87
2023/03/21 00:47:55;;;;;;;19.73;9.40;;;;;;;9.06;59.45;99222.34;6108215;23;20005;-87
2023/03/21 00:50:21;;;;;;;14.05;8.85;;;;;;;9.07;59.56;99232.03;6108585;23;20017;-87
2023/03/21 00:52:46;;;;;;;14.45;8.43;;;;;;;9.08;59.79;99238.19;6109306;23;20008;-87
2023/03/21 00:55:16;;;;;;;20.20;8.80;;;;;;;9.08;59.26;99230.94;6108465;23;20428;-87
2023/03/21 00:57:42;;;;;;;16.92;8.98;;;;;;;9.12;58.82;99222.38;6085085;23;20436;-87
2023/03/21 01:00:09;;;;;;;13.85;8.90;;;;;;;9.26;58.20;99221.63;6109926;23;19994;-87
2023/03/21 01:02:36;;;;;;;14.15;9.00;;;;;;;9.29;58.16;99221.06;6086204;23;19998;-87
2023/03/21 01:05:05;;;;;;;16.88;8.50;;;;;;;9.31;58.42;99210.06;6108649;23;20071;-87
2023/03/21 01:07:31;;;;;;;13.13;8.55;;;;;;;9.26;58.42;99204.69;6085327;23;20004;-87
2023/03/21 01:09:56;;;;;;;13.55;8.15;;;;;;;9.27;59.31;99215.16;6109218;23;19997;-88
2023/03/21 01:12:21;;;;;;;16.55;8.95;;;;;;;9.25;58.95;99211.13;6109472;23;20010;-87
2023/03/21 01:14:47;;;;;;;12.75;8.20;;;;;;;9.26;59.44;99207.38;6108330;23;20008;-87
2023/03/21 01:17:12;;;;;;;14.65;7.57;;;;;;;9.16;59.75;99218.09;6108177;23;20004;-87
2023/03/21 01:19:38;;;;;;;19.17;7.88;;;;;;;9.16;59.24;99208.16;6108687;23;20425;-87
2023/03/21 01:22:04;;;;;;;11.85;7.72;;;;;;;9.05;59.43;99204.63;6108708;23;20006;-87
2023/03/21 01:24:29;;;;;;;14.15;8.10;;;;;;;8.94;59.93;99200.25;6109734;23;20029;-87
2023/03/21 01:26:55;;;;;;;16.75;7.80;;;;;;;8.98;59.73;99213.97;6107486;23;20012;-87
2023/03/21 01:29:20;;;;;;;14.77;7.50;;;;;;;9.07;59.48;99207.03;6108315;23;20451;-89
2023/03/21 01:31:45;;;;;;;11.25;7.55;;;;;;;8.93;59.70;99203.22;6107926;23;20008;-88
2023/03/21 01:34:11;;;;;;;13.82;7.13;;;;;;;8.82;60.30;99194.28;6108143;23;20411;-87
2023/03/21 01:36:36;;;;;;;11.90;7.10;;;;;;;8.89;60.20;99203.72;6106792;23;19997;-87
2023/03/21 01:39:03;;;;;;;14.25;7.45;;;;;;;8.86;60.23;99196.22;6107641;23;20000;-87
2023/03/21 01:41:36;;;;;;;16.13;7.50;;;;;;;8.86;60.58;99198.91;6083907;23;20001;-87
2023/03/21 01:44:03;;;;;;;13.38;7.68;;;;;;;8.95;59.76;99193.03;6085664;23;20064;-87
2023/03/21 01:46:41;;;;;;;14.27;7.85;;;;;;;9.02;59.39;99196.25;6107714;23;20115;-87
2023/03/21 01:49:11;;;;;;;19.58;8.15;;;;;;;9.08;59.49;99200.59;6131373;23;20487;-87
2023/03/21 01:51:42;;;;;;;14.65;7.53;;;;;;;8.85;60.07;99186.53;6131809;23;20053;-87
2023/03/21 01:54:10;;;;;;;13.07;8.27;;;;;;;8.92;60.10;99196.22;6107568;23;20002;-87
2023/03/21 01:56:36;;;;;;;14.65;8.35;;;;;;;8.79;60.35;99184.09;6108170;23;20055;-87
2023/03/21 01:59:08;;;;;;;13.18;8.10;;;;;;;8.68;60.31;99193.97;6107945;23;20009;-88
2023/03/21 02:01:37;;;;;;;12.55;7.97;;;;;;;8.66;61.05;99207.63;6107092;23;20004;-87
2023/03/21 02:04:03;;;;;;;16.23;8.20;;;;;;;8.66;60.72;99194.22;6108536;23;20010;-87
2023/03/21 02:06:59;;;;;;;13.57;8.27;;;;;;;8.73;60.69;99199.34;6108258;23;20021;-88
2023/03/21 02:09:26;;;;;;;15.45;8.38;;;;;;;8.82;60.25;99187.06;6131957;23;20013;-87
2023/03/21 02:11:53;;;;;;;15.77;8.75;;;;;;;8.78;60.11;99185.13;6083411;23;20036;-88
2023/03/21 02:14:18;;;;;;;12.88;8.00;;;;;;;8.79;60.43;99184.09;6084071;23;20004;-87
2023/03/21 02:17:02;;;;;;;14.82;8.40;;;;;;;8.88;60.29;99191.38;6106591;23;20360;-88
2023/03/21 02:19:46;;;;;;;13.90;7.65;;;;;;;8.99;59.65;99197.59;6155552;23;20021;-87
2023/03/21 02:22:25;;;;;;;13.98;7.97;;;;;;;9.10;59.76;99195.75;6155271;23;20028;-87
2023/03/21 02:24:50;;;;;;;16.08;8.38;;;;;;;9.11;59.78;99194.72;6131555;23;20036;-87
2023/03/21 02:27:17;;;;;;;22.80;16.42;;;;;;;8.98;59.97;99185.22;6157896;23;20429;-88
2023/03/21 02:30:03;;;;;;;19.20;9.27;;;;;;;8.93;60.43;99176.38;6083691;23;20008;-87
2023/03/21 02:32:53;;;;;;;12.70;8.40;;;;;;;8.96;60.26;99187.38;6156431;23;19998;-87
2023/03/21 02:35:40;;;;;;;14.90;7.85;;;;;;;9.00;59.60;99191.16;6131752;23;20067;-87
2023/03/21 02:38:21;;;;;;;11.95;8.05;;;;;;;9.06;59.63;99200.84;6156239;23;20452;-87
2023/03/21 02:40:52;;;;;;;13.43;8.32;;;;;;;9.08;59.45;99201.38;6133590;23;20005;-87
2023/03/21 02:43:23;;;;;;;16.02;8.57;;;;;;;9.14;59.21;99198.75;6085600;23;20065;-87
2023/03/21 02:45:51;;;;;;;14.93;8.65;;;;;;;9.06;59.68;99187.41;6133335;23;20010;-87
2023/03/21 02:48:32;;;;;;;13.77;8.10;;;;;;;8.80;60.53;99177.63;6109505;23;20095;-87
2023/03/21 02:50:58;;;;;;;15.43;7.97;;;;;;;8.63;60.79;99177.81;6098608;23;20021;-87
2023/03/21 02:53:25;;;;;;;13.10;8.23;;;;;;;8.76;60.50;99185.41;6133280;23;20002;-87
2023/03/21 02:55:51;;;;;;;14.93;8.23;;;;;;;8.76;60.51;99198.84;6110121;23;20006;-87
2023/03/21 02:58:18;;;;;;;15.27;8.85;;;;;;;8.93;60.10;99195.97;6133963;23;20432;-87
2023/03/21 03:00:44;;;;;;;15.00;8.15;;;;;;;8.88;60.24;99185.19;6134648;23;20017;-88
2023/03/21 03:03:11;;;;;;;15.10;8.25;;;;;;;8.70;61.01;99200.69;6110138;23;20024;-87
2023/03/21 03:05:41;;;;;;;12.55;7.70;;;;;;;8.63;60.92;99204.66;6110433;23;20005;-88
2023/03/21 03:08:28;;;;;;;12.93;7.72;;;;;;;8.52;60.77;99198.44;6109857;23;20001;-87
2023/03/21 03:11:06;;;;;;;13.00;7.75;;;;;;;8.58;61.08;99221.53;6137779;23;20354;-88
2023/03/21 03:14:02;;;;;;;14.93;8.10;;;;;;;8.64;60.95;99228.56;6158177;23;20005;-87
2023/03/21 03:16:27;;;;;;;13.52;7.13;;;;;;;8.61;60.78;99221.03;6157885;23;20040;-87
2023/03/21 03:18:58;;;;;;;13.13;8.00;;;;;;;8.43;61.66;99216.91;6156843;23;20028;-87
2023/03/21 03:21:31;;;;;;;14.52;7.30;;;;;;;8.59;60.89;99222.34;6134435;23;20332;-87
2023/03/21 03:24:19;;;;;;;13.93;7.85;;;;;;;8.70;60.55;99216.00;6109404;23;20002;-87
2023/03/21 03:27:05;;;;;;;13.05;7.70;;;;;;;8.74;61.04;99222.47;6109178;23;20017;-87
2023/03/21 03:29:31;;;;;;;20.83;8.57;;;;;;;8.59;61.35;99206.25;6133144;23;20088;-87
2023/03/21 03:32:00;;;;;;;18.60;7.82;;;;;;;8.58;61.41;99218.88;6109343;23;20008;-87
2023/03/21 03:34:31;;;;;;;15.65;8.00;;;;;;;8.63;61.20;99226.13;6110125;23;20064;-87
2023/03/21 03:36:58;;;;;;;16.10;8.05;;;;;;;8.80;60.25;99225.97;6108909;23;20001;-87
2023/03/21 03:39:26;;;;;;;14.55;8.55;;;;;;;8.96;59.76;99229.53;6135139;23;19994;-87
2023/03/21 03:41:59;;;;;;;12.35;8.65;;;;;;;9.00;59.17;99219.88;6110981;23;20008;-88
2023/03/21 03:44:27;;;;;;;16.15;8.52;;;;;;;9.03;59.07;99209.44;6134002;23;20057;-87
2023/03/21 03:46:59;;;;;;;14.00;8.27;;;;;;;9.04;59.07;99210.25;6133951;23;20088;-87
2023/03/21 03:49:26;;;;;;;17.50;9.05;;;;;;;8.81;60.15;99214.16;6108224;23;20137;-88
2023/03/21 03:52:02;;;;;;;14.45;8.52;;;;;;;8.59;60.92;99200.88;6109149;23;20065;-88
2023/03/21 03:54:31;;;;;;;18.30;8.65;;;;;;;8.67;60.73;99224.53;6135638;23;20333;-87
2023/03/21 03:56:57;;;;;;;13.57;8.68;;;;;;;8.65;60.25;99214.09;6133272;23;20001;-87
2023/03/21 03:59:23;;;;;;;12.88;8.48;;;;;;;8.67;60.39;99225.38;6109241;23;20001;-87
2023/03/21 04:01:49;;;;;;;16.95;9.43;;;;;;;8.77;59.95;99215.75;6108378;23;20001;-87
2023/03/21 04:04:15;;;;;;;17.05;9.45;;;;;;;8.64;60.14;99199.03;6107450;23;20002;-88
2023/03/21 04:06:50;;;;;;;13.48;9.05;;;;;;;8.61;60.41;99207.63;6108859;23;20001;-87
2023/03/21 04:09:16;;;;;;;12.35;7.97;;;;;;;8.55;60.45;99205.16;6110013;23;20005;-87
2023/03/21 04:11:41;;;;;;;13.13;7.95;;;;;;;8.64;60.60;99217.81;6109106;23;20009;-87
2023/03/21 04:14:07;;;;;;;18.65;8.57;;;;;;;8.58;60.48;99201.97;6108106;23;19994;-87
2023/03/21 04:16:32;;;;;;;16.33;8.23;;;;;;;8.60;60.17;99205.19;6109117;23;19994;-89
2023/03/21 04:18:58;;;;;;;17.05;8.93;;;;;;;8.76;59.66;99204.22;6110061;23;20507;-87
2023/03/21 04:21:23;;;;;;;12.50;8.20;;;;;;;8.87;59.50;99203.19;6108792;23;20001;-87
2023/03/21 04:23:49;;;;;;;13.07;8.73;;;;;;;8.88;59.49;99183.34;6107989;23;20475;-87
2023/03/21 04:26:14;;;;;;;12.30;8.05;;;;;;;9.06;58.58;99211.59;6109604;23;20010;-88
2023/03/21 04:28:40;;;;;;;13.45;8.68;;;;;;;8.98;58.66;99204.03;6108536;23;20076;-87
2023/03/21 04:31:08;;;;;;;13.50;8.18;;;;;;;9.03;58.80;99214.81;6108712;23;20001;-88
2023/03/21 04:33:37;;;;;;;13.23;8.23;;;;;;;9.10;58.63;99220.75;6132543;23;19997;-88
2023/03/21 04:36:08;;;;;;;16.20;7.88;;;;;;;9.06;58.93;99214.28;6111271;23;20002;-88
2023/03/21 04:38:33;;;;;;;12.60;7.53;;;;;;;9.11;58.95;99213.50;6110607;23;20001;-89
2023/03/21 04:40:59;;;;;;;12.57;7.88;;;;;;;9.09;59.52;99200.34;6108426;23;20060;-87
2023/03/21 04:43:25;;;;;;;14.48;8.80;;;;;;;9.09;59.88;99215.66;6107297;23;20005;-87
2023/03/21 04:45:50;;;;;;;16.48;8.70;;;;;;;9.10;59.67;99212.69;6107984;23;20093;-87
2023/03/21 04:48:18;;;;;;;14.98;8.65;;;;;;;9.17;59.04;99211.63;6132889;23;20006;-88
2023/03/21 04:50:44;;;;;;;15.05;8.38;;;;;;;9.24;58.59;99213.00;6109987;23;20064;-96
2023/03/21 04:53:10;;;;;;;14.55;8.77;;;;;;;9.15;59.01;99192.28;6135796;23;20005;-95
2023/03/21 04:55:35;;;;;;;15.88;8.70;;;;;;;9.30;59.04;99206.59;6110075;23;20028;-95
2023/03/21 04:58:02;;;;;;;15.25;8.35;;;;;;;9.27;58.83;99220.53;6086279;23;19994;-94
2023/03/21 05:00:28;;;;;;;21.90;9.02;;;;;;;9.25;58.86;99211.94;6113868;23;20064;-94
2023/03/21 05:02:53;;;;;;;15.50;8.60;;;;;;;9.28;59.15;99219.47;6114764;23;19997;-93
2023/03/21 05:05:19;;;;;;;17.45;9.13;;;;;;;9.22;59.47;99199.03;6110088;23;20001;-95
2023/03/21 05:07:44;;;;;;;20.77;9.02;;;;;;;9.37;59.25;99192.88;6110019;23;20002;-93
2023/03/21 05:10:10;;;;;;;30.58;9.25;;;;;;;9.42;58.81;99190.22;6109417;23;20036;-95
2023/03/21 05:12:37;;;;;;;21.55;8.35;;;;;;;9.53;58.21;99188.38;6110976;23;20025;-95
2023/03/21 05:15:04;;;;;;;16.60;8.50;;;;;;;9.43;58.35;99185.66;6113346;23;20000;-95
2023/03/21 05:17:29;;;;;;;12.60;8.15;;;;;;;9.49;58.41;99189.97;6110872;23;20001;-94
2023/03/21 05:19:56;;;;;;;17.35;7.78;;;;;;;9.62;57.65;99178.69;6111200;23;20322;-94
2023/03/21 05:22:23;;;;;;;13.73;8.45;;;;;;;9.83;57.79;99189.47;6136812;23;20001;-95
2023/03/21 05:24:49;;;;;;;17.42;8.25;;;;;;;9.90;56.80;99180.06;6132597;23;20437;-96
2023/03/21 05:27:34;;;;;;;14.10;7.60;;;;;;;9.97;56.89;99181.69;6111076;23;20005;-95
2023/03/21 05:30:05;;;;;;;18.33;8.48;;;;;;;10.12;56.28;99200.50;6138033;23;20088;-93
2023/03/21 05:32:31;;;;;;;18.88;9.90;;;;;;;10.24;56.34;99209.13;6112108;23;20013;-96
2023/03/21 05:34:56;;;;;;;18.27;9.68;;;;;;;10.14;56.49;99197.56;6111630;23;20416;-95
2023/03/21 05:37:22;;;;;;;21.77;9.85;;;;;;;10.29;56.42;99208.28;6111964;23;20013;-93
2023/03/21 05:39:48;;;;;;;41.45;18.80;;;;;;;10.38;55.87;99197.84;6112104;23;19997;-94
2023/03/21 05:42:13;;;;;;;17.65;10.10;;;;;;;10.55;55.75;99217.19;6111900;23;20008;-93
2023/03/21 05:44:41;;;;;;;27.08;9.82;;;;;;;10.47;56.48;99206.97;6110839;23;20013;-93
2023/03/21 05:47:07;;;;;;;21.90;11.23;;;;;;;10.39;56.89;99207.53;6113449;23;20002;-91
2023/03/21 05:49:32;;;;;;;19.05;10.45;;;;;;;10.36;56.69;99208.06;6112047;23;20005;-91
2023/03/21 05:51:58;;;;;;;21.75;10.05;;;;;;;10.47;56.22;99206.97;6110923;23;20013;-92
2023/03/21 05:54:24;;;;;;;33.38;11.02;;;;;;;10.42;56.88;99215.88;6112080;23;20006;-92
2023/03/21 05:56:53;;;;;;;20.98;12.57;;;;;;;10.52;56.01;99204.25;6113398;23;20373;-93
2023/03/21 05:59:19;;;;;;;87.82;40.10;;;;;;;10.67;56.07;99216.91;6111380;23;20017;-93
2023/03/21 06:01:44;;;;;;;22.98;11.18;;;;;;;10.72;55.98;99214.19;6111834;23;20028;-94
2023/03/21 06:04:14;;;;;;;22.10;10.98;;;;;;;10.92;55.72;99234.88;6113071;23;20028;-86
2023/03/21 06:06:42;;;;;;;18.17;9.85;;;;;;;10.99;55.20;99221.91;6110375;23;20001;-88
2023/03/21 06:09:08;;;;;;;24.38;10.18;;;;;;;11.07;54.70;99207.88;6110036;23;20013;-88
2023/03/21 06:11:35;;;;;;;24.33;11.60;;;;;;;11.11;55.47;99230.50;6085374;23;20103;-87
2023/03/21 06:14:00;;;;;;;23.90;10.02;;;;;;;11.06;55.11;99205.44;6109967;23;20491;-89
2023/03/21 06:16:27;;;;;;;175.63;20.55;;;;;;;11.33;54.80;99240.13;6109211;23;20032;-87
2023/03/21 06:18:54;;;;;;;26.17;10.57;;;;;;;11.07;55.05;99209.78;6110834;23;19997;-88
2023/03/21 06:21:19;;;;;;;29.58;11.82;;;;;;;11.09;55.73;99223.78;6087234;23;20009;-88
2023/03/21 06:23:45;;;;;;;17.60;11.68;;;;;;;11.41;54.62;99228.75;6113132;23;20001;-90
2023/03/21 06:26:13;;;;;;;20.50;11.15;;;;;;;11.53;54.07;99217.63;6114761;23;20002;-88
2023/03/21 06:28:39;;;;;;;18.58;10.32;;;;;;;11.78;53.73;99232.84;6114041;23;20085;-90
2023/03/21 06:31:07;;;;;;;22.42;10.52;;;;;;;11.70;53.21;99206.47;6113636;23;20006;-90
2023/03/21 06:33:41;;;;;;;17.20;11.32;;;;;;;11.80;53.02;99214.50;6113621;23;20002;-94
2023/03/21 06:36:10;;;;;;;28.85;13.65;;;;;;;11.72;53.19;99212.38;6090201;23;20021;-90
2023/03/21 06:38:36;;;;;;;103.03;52.92;;;;;;;11.92;52.59;99230.38;6113468;23;20001;-90
2023/03/21 06:41:06;;;;;;;33.55;17.25;;;;;;;11.99;52.31;99238.13;6114222;23;19994;-93
2023/03/21 06:43:37;;;;;;;14.25;9.10;;;;;;;11.91;51.93;99216.09;6115678;23;20002;-94
2023/03/21 06:46:06;;;;;;;14.20;8.60;;;;;;;12.03;51.24;99209.50;6113022;23;20005;-96
2023/03/21 06:48:32;;;;;;;169.15;72.57;;;;;;;12.20;51.38;99236.09;6117890;23;20008;-95
2023/03/21 06:51:03;;;;;;;24.88;14.38;;;;;;;12.45;51.25;99249.41;6118649;23;20017;-90
2023/03/21 06:53:42;;;;;;;21.23;13.88;;;;;;;12.41;51.34;99225.91;6117148;23;20012;-91
2023/03/21 06:56:08;;;;;;;20.25;10.30;;;;;;;12.42;51.44;99236.44;6115716;23;20035;-90
2023/03/21 06:58:38;;;;;;;16.90;10.10;;;;;;;12.63;50.84;99234.34;6115988;23;20321;-89
2023/03/21 07:01:04;;;;;;;15.35;8.73;;;;;;;12.64;50.18;99246.78;6116690;23;20001;-89
2023/03/21 07:03:30;;;;;;;22.85;8.93;;;;;;;12.75;50.19;99242.06;6137423;23;20005;-88
2023/03/21 07:05:56;;;;;;;14.82;8.70;;;;;;;13.01;49.63;99241.78;6113268;23;19990;-90
2023/03/21 07:08:26;;;;;;;21.05;9.65;;;;;;;13.17;49.24;99245.94;6138729;23;20408;-90
2023/03/21 07:11:02;;;;;;;17.05;9.57;;;;;;;13.34;48.27;99232.78;6112926;23;20510;-91
2023/03/21 07:13:30;;;;;;;30.02;14.80;;;;;;;13.10;48.86;99221.97;6118944;23;20005;-90
2023/03/21 07:15:56;;;;;;;23.25;13.13;;;;;;;13.18;48.73;99235.91;6109829;23;20032;-90
2023/03/21 07:18:22;;;;;;;24.77;10.63;;;;;;;13.42;48.81;99238.63;6109789;23;19981;-90
2023/03/21 07:20:51;;;;;;;16.92;9.73;;;;;;;13.64;47.87;99221.84;6109819;23;20005;-92
2023/03/21 07:23:20;;;;;;;21.45;10.88;;;;;;;13.72;46.75;99240.13;6112008;23;20074;-90
2023/03/21 07:25:47;;;;;;;23.90;10.55;;;;;;;13.74;46.89;99222.50;6112178;23;20001;-90
2023/03/21 07:28:13;;;;;;;22.95;9.40;;;;;;;14.16;46.15;99249.75;6093182;23;20073;-91
2023/03/21 07:30:41;;;;;;;13.82;8.57;;;;;;;14.10;46.52;99221.94;6121842;23;20006;-90
2023/03/21 07:33:11;;;;;;;15.77;8.30;;;;;;;14.21;46.36;99219.06;6151940;23;20006;-90
2023/03/21 07:35:37;;;;;;;22.90;9.00;;;;;;;14.42;46.19;99233.06;6144696;23;20005;-89
2023/03/21 07:38:08;;;;;;;14.60;8.55;;;;;;;14.77;44.59;99249.84;6113671;23;20000;-91
2023/03/21 07:40:37;;;;;;;18.73;9.43;;;;;;;14.92;44.32;99225.97;6113895;23;20012;-93
2023/03/21 07:43:23;;;;;;;17.27;10.40;;;;;;;14.88;43.82;99205.16;6118592;23;20002;-91
2023/03/21 07:45:49;;;;;;;14.35;8.60;;;;;;;15.06;43.88;99219.72;6137598;23;20416;-93
2023/03/21 07:48:19;;;;;;;13.95;8.20;;;;;;;15.21;43.62;99213.19;6123846;23;20010;-89
2023/03/21 07:51:13;;;;;;;16.77;8.48;;;;;;;15.39;43.17;99227.75;6114981;23;20046;-91
2023/03/21 07:53:47;;;;;;;20.45;9.38;;;;;;;15.63;42.58;99233.72;6142515;23;20016;-89
2023/03/21 07:56:36;;;;;;;18.88;9.25;;;;;;;15.88;42.14;99237.00;6091523;23;20010;-92
2023/03/21 07:59:04;;;;;;;27.60;14.70;;;;;;;15.80;41.93;99227.69;6165707;23;20005;-94
2023/03/21 08:01:29;;;;;;;15.45;9.05;;;;;;;16.05;41.65;99237.13;6116605;23;20005;-89
2023/03/21 08:03:55;;;;;;;16.77;9.25;;;;;;;15.95;41.65;99215.66;6114117;23;20049;-92
2023/03/21 08:06:24;;;;;;;17.98;9.18;;;;;;;15.82;42.00;99232.81;6116888;23;19997;-88
2023/03/21 08:08:51;;;;;;;13.65;8.32;;;;;;;15.71;42.26;99235.72;6139962;23;20336;-88
2023/03/21 08:11:20;;;;;;;16.30;7.90;;;;;;;15.94;41.31;99239.28;6115003;23;20041;-90
2023/03/21 08:13:46;;;;;;;13.77;9.18;;;;;;;15.87;41.54;99233.47;6114988;23;20013;-91
2023/03/21 08:16:15;;;;;;;14.45;7.97;;;;;;;16.18;41.00;99240.91;6122309;23;20085;-89
2023/03/21 08:18:41;;;;;;;14.40;7.90;;;;;;;16.14;40.38;99220.91;6112624;23;20060;-91
2023/03/21 08:21:08;;;;;;;15.38;7.22;;;;;;;16.53;39.80;99241.94;6115349;23;20424;-89
2023/03/21 08:23:44;;;;;;;;;;;;;;;;;;;;;
2023/03/21 08:26:17;;;;;;;21.02;10.57;;;;;;;16.77;38.88;99227.19;6119583;23;20385;-89
2023/03/21 08:28:44;;;;;;;;;;;;;;;17.13;38.32;99237.09;6118914;23;20125;-89
2023/03/21 08:31:10;;;;;;;16.90;8.23;;;;;;;17.19;37.93;99219.53;6164434;23;19909;-89
2023/03/21 08:33:36;;;;;;;16.83;6.78;;;;;;;17.17;37.49;99210.88;6115458;23;20100;-88
2023/03/21 08:36:02;;;;;;;11.40;7.13;;;;;;;17.44;37.09;99192.69;6114819;23;20001;-90
2023/03/21 08:38:29;;;;;;;10.35;6.88;;;;;;;17.47;36.28;99214.63;6091728;23;20015;-89
2023/03/21 08:40:55;;;;;;;12.43;6.25;;;;;;;17.42;36.72;99197.63;6116171;23;20012;-91
2023/03/21 08:43:21;;;;;;;10.02;5.18;;;;;;;17.76;36.38;99214.00;6113514;23;20056;-88
2023/03/21 08:45:47;;;;;;;8.10;5.43;;;;;;;18.23;35.44;99213.34;6137871;23;20032;-88
2023/03/21 08:48:13;;;;;;;13.70;6.50;;;;;;;18.43;35.16;99216.50;6112286;23;20357;-90
2023/03/21 08:50:42;;;;;;;9.90;5.25;;;;;;;18.57;34.57;99211.66;6111771;23;20022;-89
2023/03/21 08:53:07;;;;;;;11.57;6.45;;;;;;;18.51;34.63;99197.44;6138189;23;19998;-90
2023/03/21 08:55:37;;;;;;;13.45;7.07;;;;;;;18.83;33.97;99221.72;6115315;23;20006;-90
2023/03/21 08:58:23;;;;;;;17.13;8.18;;;;;;;19.03;33.46;99209.25;6141317;23;20005;-89
2023/03/21 09:00:49;;;;;;;8.18;5.53;;;;;;;18.97;32.26;99175.94;6117646;23;20020;-89
2023/03/21 09:03:23;;;;;;;14.43;6.10;;;;;;;19.33;32.88;99207.34;6117754;23;20001;-90
2023/03/21 09:05:52;;;;;;;7.50;4.68;;;;;;;19.25;32.74;99205.47;6097596;23;20008;-91
2023/03/21 09:08:22;;;;;;;9.73;4.90;;;;;;;19.14;32.64;99186.72;6143474;23;20009;-87
2023/03/21 09:10:54;;;;;;;8.00;4.82;;;;;;;19.06;32.49;99173.16;6140827;23;20003;-87
2023/03/21 09:13:20;;;;;;;7.68;5.20;;;;;;;19.18;31.89;99163.09;6110212;23;20033;-87
2023/03/21 09:15:46;;;;;;;9.23;5.30;;;;;;;19.39;32.27;99181.44;6111559;23;20096;-90
2023/03/21 09:18:17;;;;;;;9.38;5.05;;;;;;;19.17;33.12;99193.47;6114332;23;20004;-92
2023/03/21 09:20:45;;;;;;;7.10;5.07;;;;;;;18.88;33.54;99177.88;6140400;23;20005;-88
2023/03/21 09:23:12;;;;;;;9.13;5.80;;;;;;;18.69;33.56;99179.06;6137736;23;20240;-89
2023/03/21 09:25:43;;;;;;;8.07;5.00;;;;;;;18.81;33.88;99194.78;6114765;23;20021;-88
2023/03/21 09:28:11;;;;;;;8.65;5.63;;;;;;;18.60;34.60;99174.78;6140823;23;19988;-89
2023/03/21 09:30:37;;;;;;;7.78;5.30;;;;;;;18.32;35.43;99180.63;6112469;23;20037;-88
2023/03/21 09:33:07;;;;;;;10.18;5.97;;;;;;;18.20;35.81;99194.13;6109447;23;19997;-87
2023/03/21 09:35:33;;;;;;;9.27;6.07;;;;;;;18.09;36.51;99185.47;6138944;23;20066;-91
2023/03/21 09:37:59;;;;;;;11.40;5.65;;;;;;;17.93;36.58;99182.47;6112339;23;20060;-89
2023/03/21 09:41:02;;;;;;;11.85;6.60;;;;;;;17.92;35.76;99208.91;6115712;23;19998;-92
2023/03/21 09:44:09;;;;;;;8.73;5.32;;;;;;;17.77;35.81;99203.91;6140860;23;20009;-88
2023/03/21 09:46:56;;;;;;;11.45;5.60;;;;;;;17.91;36.12;99204.59;6144957;23;20026;-88
2023/03/21 09:49:28;;;;;;;8.25;5.35;;;;;;;17.89;36.89;99185.03;6150004;23;19997;-93
2023/03/21 09:51:55;;;;;;;10.80;5.85;;;;;;;17.90;36.47;99189.34;6081692;23;1897712;-94
2023/03/21 09:54:26;;;;;;;10.40;5.90;;;;;;;17.82;36.50;99178.44;6155200;23;20070;-91
2023/03/21 09:57:27;;;;;;;29.65;13.38;;;;;;;17.80;36.88;99178.75;6155080;23;20048;-94
2023/03/21 10:00:42;;;;;;;9.38;5.88;;;;;;;18.12;36.56;99176.69;6140415;23;20017;-94
2023/03/21 10:06:40;;;;;;;11.43;5.78;;;;;;;17.93;37.38;99199.63;6168779;23;20024;-93
2023/03/21 10:09:39;;;;;;;10.50;6.15;;;;;;;18.01;37.10;99202.63;6152256;23;20061;-96
2023/03/21 10:12:24;;;;;;;9.35;5.68;;;;;;;17.74;37.43;99180.03;6111627;23;20074;-94
2023/03/21 10:14:51;;;;;;;9.68;5.72;;;;;;;17.87;37.13;99168.22;6063601;23;20007;-90
2023/03/21 10:17:58;;;;;;;8.85;5.68;;;;;;;18.18;36.91;99180.84;6069542;23;20010;-94
2023/03/21 10:20:55;;;;;;;10.80;5.43;;;;;;;17.95;37.03;99172.84;6011421;23;20000;-93
2023/03/21 10:23:34;;;;;;;10.05;5.85;;;;;;;18.02;36.97;99174.28;6008297;23;20016;-96
2023/03/21 10:26:05;;;;;;;12.20;6.55;;;;;;;18.10;36.86;99182.44;6031152;23;20050;-95
2023/03/21 10:28:40;;;;;;;11.00;5.80;;;;;;;17.92;37.20;99156.34;6003420;23;20027;-93
2023/03/21 10:31:10;;;;;;;16.15;7.00;;;;;;;17.85;37.45;99135.06;6068680;23;20010;-95
2023/03/21 10:33:40;;;;;;;7.03;5.18;;;;;;;18.00;37.75;99147.34;6064975;23;20002;-95
2023/03/21 10:36:32;;;;;;;9.32;5.32;;;;;;;18.44;36.77;99180.75;6090482;23;20005;-95
2023/03/21 10:39:24;;;;;;;9.88;5.63;;;;;;;18.35;36.94;99145.34;6084809;23;20002;-96
2023/03/21 10:41:50;;;;;;;10.65;5.63;;;;;;;18.51;36.16;99142.91;6061348;23;20002;-96
2023/03/21 10:44:24;;;;;;;11.30;5.55;;;;;;;18.74;35.82;99164.47;6036607;23;20013;-92
2023/03/21 10:53:09;;;;;;;6.53;5.17;;;;;;;18.93;35.69;99142.25;6051517;23;20043;-95
2023/03/21 10:55:38;;;;;;;7.78;4.95;;;;;;;19.04;35.06;99148.13;6068579;23;20005;-94
2023/03/21 11:01:54;;;;;;;9.90;5.53;;;;;;;19.16;35.00;99157.19;6013008;23;20063;-95
2023/03/21 11:08:03;;;;;;;11.27;5.00;;;;;;;19.34;34.91;99159.78;5970514;23;20029;-96
2023/03/21 11:10:54;;;;;;;7.78;5.25;;;;;;;19.26;34.69;99144.25;5943027;23;20026;-95
2023/03/21 11:13:56;;;;;;;7.97;5.10;;;;;;;19.27;33.86;99140.41;6097952;23;20002;-96
2023/03/21 11:16:42;;;;;;;9.15;4.82;;;;;;;19.21;34.30;99152.66;6115331;23;20021;-91
2023/03/21 11:19:43;;;;;;;10.93;5.72;;;;;;;19.50;34.36;99160.00;6142309;23;19997;-92
2023/03/21 11:22:20;;;;;;;11.60;6.60;;;;;;;19.23;34.54;99153.91;6077000;23;20038;-92
2023/03/21 11:24:54;;;;;;;8.38;4.95;;;;;;;19.09;34.44;99126.06;6115122;23;20068;-92
2023/03/21 11:27:40;;;;;;;6.47;4.15;;;;;;;19.36;34.54;99133.78;6110309;23;20010;-90
2023/03/21 11:30:31;;;;;;;8.82;4.70;;;;;;;19.65;34.23;99150.41;6090553;23;20006;-90
2023/03/21 11:33:47;;;;;;;;;;;;;;;;;;;;;
2023/03/21 11:36:41;;;;;;;8.35;4.80;;;;;;;19.58;34.83;99132.63;6131328;23;20445;-89
2023/03/21 11:39:10;;;;;;;6.38;4.53;;;;;;;19.66;34.42;99138.34;6104700;23;20044;-90
2023/03/21 11:41:36;;;;;;;6.90;4.60;;;;;;;19.42;34.76;99119.91;6106798;23;20029;-89
2023/03/21 11:44:01;;;;;;;8.80;4.40;;;;;;;19.43;34.92;99114.13;6084341;23;20002;-89
2023/03/21 11:46:31;;;;;;;11.00;5.97;;;;;;;19.34;35.42;99097.00;6085545;23;20029;-90
2023/03/21 11:48:57;;;;;;;146.43;88.78;;;;;;;19.44;35.03;99102.03;6082510;23;20008;-91
2023/03/21 11:51:54;;;;;;;92.53;48.13;;;;;;;19.51;35.32;99101.53;6061170;23;20006;-94
2023/03/21 11:54:53;;;;;;;46.33;33.13;;;;;;;19.56;35.25;99104.03;6111133;23;20468;-92
2023/03/21 11:57:38;;;;;;;8.48;5.55;;;;;;;19.41;35.23;99085.56;6108813;23;20092;-91
2023/03/21 12:00:09;;;;;;;8.80;5.18;;;;;;;19.49;35.14;99098.34;6084969;23;20002;-93
2023/03/21 12:03:27;;;;;;;;;;;;;;;;;;;;;
2023/03/21 12:07:04;;;;;;;7.90;5.13;;;;;;;19.47;35.03;99097.88;6061705;23;20229;-95
2023/03/21 12:10:10;;;;;;;10.57;5.65;;;;;;;19.40;35.14;99087.47;5964541;24;20020;-88
2023/03/21 12:13:11;;;;;;;6.80;4.85;;;;;;;19.44;34.95;99096.59;5956650;24;20072;-87